createdAt,value
2023-03-05T00:01:15.380Z,12.02
2023-03-05T00:03:42.369Z,12.75
2023-03-05T00:06:09.672Z,10.48
2023-03-05T00:08:37.510Z,12.43
2023-03-05T00:11:08.249Z,10.90
2023-03-05T00:13:36.163Z,8.68
2023-03-05T00:16:11.505Z,10.30
2023-03-05T00:18:38.994Z,9.45
2023-03-05T00:21:18.166Z,8.93
2023-03-05T00:23:44.977Z,12.27
2023-03-05T00:26:11.904Z,10.02
2023-03-05T00:28:39.451Z,13.15
2023-03-05T00:31:06.186Z,13.18
2023-03-05T00:33:33.314Z,12.27
2023-03-05T00:36:02.435Z,10.10
2023-03-05T00:38:29.406Z,11.40
2023-03-05T00:40:56.252Z,12.95
2023-03-05T00:43:23.094Z,10.38
2023-03-05T00:45:50.022Z,13.40
2023-03-05T00:48:16.911Z,8.63
2023-03-05T00:50:43.966Z,11.52
2023-03-05T00:53:10.996Z,13.05
2023-03-05T00:55:37.859Z,9.60
2023-03-05T00:58:05.019Z,13.77
2023-03-05T01:00:32.895Z,11.32
2023-03-05T01:02:59.817Z,13.70
2023-03-05T01:05:26.706Z,12.63
2023-03-05T01:07:54.495Z,11.30
2023-03-05T01:10:23.453Z,10.63
2023-03-05T01:12:50.170Z,9.65
2023-03-05T01:15:16.940Z,9.00
2023-03-05T01:17:43.745Z,8.43
2023-03-05T01:20:14.428Z,9.10
2023-03-05T01:22:41.249Z,9.23
2023-03-05T01:25:08.753Z,9.63
2023-03-05T01:27:35.833Z,9.63
2023-03-05T01:30:02.822Z,8.00
2023-03-05T01:32:29.999Z,9.38
2023-03-05T01:34:56.848Z,8.25
2023-03-05T01:37:23.701Z,8.75
2023-03-05T01:39:50.415Z,9.00
2023-03-05T01:42:19.356Z,10.88
2023-03-05T01:45:13.005Z,8.85
2023-03-05T01:47:39.938Z,9.23
2023-03-05T01:50:11.442Z,9.88
2023-03-05T01:52:41.099Z,11.45
2023-03-05T01:55:17.968Z,10.15
2023-03-05T01:57:50.023Z,10.85
2023-03-05T02:00:20.586Z,9.10
2023-03-05T02:02:50.815Z,7.97
2023-03-05T02:05:31.802Z,8.13
2023-03-05T02:08:00.315Z,5.32
2023-03-05T02:10:30.680Z,4.78
2023-03-05T02:13:00.520Z,7.90
2023-03-05T02:15:28.503Z,8.45
2023-03-05T02:17:55.281Z,6.22
2023-03-05T02:20:42.146Z,9.30
2023-03-05T02:23:09.254Z,11.45
2023-03-05T02:25:36.056Z,6.88
2023-03-05T02:28:31.213Z,11.10
2023-03-05T02:30:58.174Z,9.70
2023-03-05T02:33:25.586Z,7.90
2023-03-05T02:36:07.187Z,10.98
2023-03-05T02:38:34.359Z,7.82
2023-03-05T02:41:01.246Z,4.37
2023-03-05T02:43:28.107Z,6.15
2023-03-05T02:45:55.146Z,9.90
2023-03-05T02:48:21.989Z,6.00
2023-03-05T02:50:49.210Z,7.40
2023-03-05T02:53:16.796Z,7.20
2023-03-05T02:55:47.476Z,10.65
2023-03-05T02:58:14.704Z,7.07
2023-03-05T03:00:41.865Z,7.45
2023-03-05T03:03:09.251Z,11.43
2023-03-05T03:05:36.948Z,12.77
2023-03-05T03:08:04.480Z,8.00
2023-03-05T03:10:31.527Z,11.30
2023-03-05T03:12:58.496Z,5.63
2023-03-05T03:15:25.264Z,5.88
2023-03-05T03:17:52.244Z,6.90
2023-03-05T03:20:19.670Z,10.50
2023-03-05T03:22:46.966Z,8.38
2023-03-05T03:25:19.305Z,10.13
2023-03-05T03:27:46.226Z,10.90
2023-03-05T03:30:14.738Z,7.70
2023-03-05T03:32:41.754Z,11.98
2023-03-05T03:35:09.461Z,8.45
2023-03-05T03:37:36.715Z,9.85
2023-03-05T03:40:05.792Z,6.72
2023-03-05T03:42:33.217Z,9.53
2023-03-05T03:45:02.246Z,7.15
2023-03-05T03:47:30.225Z,9.80
2023-03-05T03:49:58.728Z,7.85
2023-03-05T03:52:26.483Z,5.28
2023-03-05T03:54:55.639Z,9.40
2023-03-05T03:57:22.549Z,7.25
2023-03-05T03:59:50.541Z,7.07
2023-03-05T04:02:17.804Z,9.32
2023-03-05T04:04:44.620Z,9.30
2023-03-05T04:07:11.675Z,7.03
2023-03-05T04:09:38.594Z,6.18
2023-03-05T04:12:05.746Z,7.15
2023-03-05T04:14:32.810Z,6.00
2023-03-05T04:16:59.603Z,6.65
2023-03-05T04:19:26.461Z,7.77
2023-03-05T04:21:53.233Z,7.07
2023-03-05T04:24:20.027Z,6.18
2023-03-05T04:26:46.804Z,7.05
2023-03-05T04:29:13.663Z,10.27
2023-03-05T04:31:40.466Z,8.33
2023-03-05T04:34:07.462Z,8.98
2023-03-05T04:36:34.243Z,6.40
2023-03-05T04:39:01.189Z,6.07
2023-03-05T04:41:27.997Z,6.97
2023-03-05T04:43:55.063Z,7.33
2023-03-05T04:46:22.025Z,6.97
2023-03-05T04:48:48.969Z,7.50
2023-03-05T04:51:15.895Z,7.18
2023-03-05T04:53:42.716Z,8.38
2023-03-05T04:56:09.460Z,8.60
2023-03-05T04:58:36.549Z,5.95
2023-03-05T05:01:05.273Z,8.20
2023-03-05T05:03:33.016Z,4.95
2023-03-05T05:06:00.843Z,5.97
2023-03-05T05:08:28.149Z,7.37
2023-03-05T05:11:02.666Z,6.90
2023-03-05T05:13:31.047Z,5.18
2023-03-05T05:15:58.470Z,7.72
2023-03-05T05:18:26.910Z,14.02
2023-03-05T05:20:53.673Z,8.70
2023-03-05T05:23:20.532Z,8.20
2023-03-05T05:25:59.516Z,8.38
2023-03-05T05:28:27.105Z,7.35
2023-03-05T05:30:54.658Z,5.38
2023-03-05T05:33:21.973Z,7.47
2023-03-05T05:35:48.861Z,3.85
2023-03-05T05:38:15.654Z,2.72
2023-03-05T05:40:42.558Z,5.22
2023-03-05T05:43:09.519Z,11.73
2023-03-05T05:45:38.731Z,4.97
2023-03-05T05:48:05.894Z,5.90
2023-03-05T05:50:32.727Z,4.47
2023-03-05T05:52:59.575Z,5.72
2023-03-05T05:55:26.322Z,5.57
2023-03-05T05:57:53.111Z,3.73
2023-03-05T06:00:20.238Z,6.20
2023-03-05T06:02:47.207Z,4.18
2023-03-05T06:05:15.086Z,5.38
2023-03-05T06:07:42.098Z,5.75
2023-03-05T06:10:09.956Z,2.57
2023-03-05T06:12:37.174Z,6.32
2023-03-05T06:15:04.691Z,4.40
2023-03-05T06:17:31.570Z,3.65
2023-03-05T06:19:59.015Z,4.55
2023-03-05T06:22:25.888Z,5.03
2023-03-05T06:24:52.740Z,6.70
2023-03-05T06:27:19.665Z,6.63
2023-03-05T06:29:46.588Z,4.85
2023-03-05T06:32:13.501Z,5.13
2023-03-05T06:34:40.486Z,6.47
2023-03-05T06:37:07.445Z,6.00
2023-03-05T06:39:34.281Z,4.82
2023-03-05T06:42:01.078Z,7.30
2023-03-05T06:44:27.955Z,4.35
2023-03-05T06:46:54.744Z,6.07
2023-03-05T06:49:21.814Z,4.10
2023-03-05T06:51:48.769Z,8.18
2023-03-05T06:54:16.800Z,9.05
2023-03-05T06:56:46.383Z,8.30
2023-03-05T06:59:15.428Z,4.90
2023-03-05T07:01:43.062Z,5.18
2023-03-05T07:04:11.225Z,6.85
2023-03-05T07:06:38.960Z,6.13
2023-03-05T07:09:07.320Z,6.97
2023-03-05T07:11:34.705Z,7.37
2023-03-05T07:14:01.744Z,6.28
2023-03-05T07:16:33.958Z,6.55
2023-03-05T07:19:02.949Z,7.55
2023-03-05T07:21:32.157Z,6.63
2023-03-05T07:24:00.910Z,7.27
2023-03-05T07:26:28.496Z,7.28
2023-03-05T07:28:55.429Z,5.15
2023-03-05T07:31:27.237Z,19.13
2023-03-05T07:33:54.220Z,7.30
2023-03-05T07:36:21.299Z,5.97
2023-03-05T07:38:48.267Z,5.53
2023-03-05T07:41:22.020Z,9.07
2023-03-05T07:43:50.890Z,6.30
2023-03-05T07:46:20.316Z,8.02
2023-03-05T07:48:47.229Z,7.13
2023-03-05T07:51:16.895Z,5.50
2023-03-05T07:53:44.680Z,9.55
2023-03-05T07:56:11.729Z,8.88
2023-03-05T07:58:38.842Z,5.43
2023-03-05T08:01:13.446Z,6.60
2023-03-05T08:03:41.741Z,5.03
2023-03-05T08:06:09.690Z,4.55
2023-03-05T08:08:36.750Z,5.50
2023-03-05T08:11:09.586Z,4.63
2023-03-05T08:13:37.226Z,5.73
2023-03-05T08:16:06.441Z,5.20
2023-03-05T08:18:33.431Z,3.83
2023-03-05T08:21:00.767Z,4.30
2023-03-05T08:23:28.191Z,5.53
2023-03-05T08:25:55.470Z,5.63
2023-03-05T08:28:22.519Z,4.72
2023-03-05T08:30:49.819Z,4.65
2023-03-05T08:33:19.685Z,4.13
2023-03-05T08:35:46.633Z,4.90
2023-03-05T08:38:13.574Z,4.90
2023-03-05T08:40:40.438Z,4.55
2023-03-05T08:43:07.548Z,5.03
2023-03-05T08:45:34.516Z,5.03
2023-03-05T08:48:01.313Z,5.20
2023-03-05T08:50:28.283Z,4.73
2023-03-05T08:52:57.024Z,4.30
2023-03-05T08:55:24.080Z,5.43
2023-03-05T08:57:51.041Z,5.43
2023-03-05T09:00:18.271Z,3.97
2023-03-05T09:02:45.440Z,4.97
2023-03-05T09:05:12.398Z,2.60
2023-03-05T09:07:39.289Z,6.13
2023-03-05T09:10:11.517Z,7.93
2023-03-05T09:12:38.428Z,3.75
2023-03-05T09:15:08.420Z,3.77
2023-03-05T09:17:36.448Z,4.82
2023-03-05T09:20:05.666Z,5.25
2023-03-05T09:22:32.889Z,6.47
2023-03-05T09:24:59.650Z,6.63
2023-03-05T09:27:26.634Z,5.13
2023-03-05T09:29:53.532Z,6.53
2023-03-05T09:32:20.367Z,17.58
2023-03-05T09:34:47.113Z,13.57
2023-03-05T09:37:14.007Z,6.72
2023-03-05T09:39:40.845Z,4.87
2023-03-05T09:42:27.153Z,4.90
2023-03-05T09:45:18.124Z,5.32
2023-03-05T09:47:57.090Z,6.38
2023-03-05T09:50:45.302Z,5.45
2023-03-05T09:53:45.174Z,5.27
2023-03-05T09:56:25.854Z,4.43
2023-03-05T09:58:57.256Z,3.20
2023-03-05T10:01:32.125Z,3.00
2023-03-05T10:04:55.068Z,2.13
2023-03-05T10:07:38.564Z,3.03
2023-03-05T10:10:16.782Z,3.17
2023-03-05T10:12:45.945Z,1.75
2023-03-05T10:15:50.234Z,3.47
2023-03-05T10:18:22.915Z,3.08
2023-03-05T10:20:56.167Z,3.40
2023-03-05T10:24:01.002Z,3.15
2023-03-05T10:26:34.092Z,3.42
2023-03-05T10:29:42.379Z,2.38
2023-03-05T10:32:15.457Z,6.53
2023-03-05T10:35:03.528Z,4.13
2023-03-05T10:37:54.886Z,4.88
2023-03-05T10:40:44.225Z,2.92
2023-03-05T10:43:32.991Z,3.33
2023-03-05T10:46:02.731Z,3.03
2023-03-05T10:48:51.345Z,3.87
2023-03-05T10:51:24.327Z,5.10
2023-03-05T10:54:00.316Z,2.95
2023-03-05T10:56:28.809Z,4.07
2023-03-05T10:58:55.898Z,4.90
2023-03-05T11:01:25.576Z,3.53
2023-03-05T11:03:58.480Z,4.70
2023-03-05T11:06:48.164Z,5.05
2023-03-05T11:09:14.930Z,4.05
2023-03-05T11:11:41.860Z,5.00
2023-03-05T11:14:29.872Z,4.10
2023-03-05T11:16:57.782Z,4.45
2023-03-05T11:19:29.796Z,6.28
2023-03-05T11:22:24.202Z,3.65
2023-03-05T11:25:11.317Z,6.50
2023-03-05T11:27:44.512Z,5.67
2023-03-05T11:30:26.359Z,5.05
2023-03-05T11:33:26.086Z,6.38
2023-03-05T11:36:09.935Z,4.32
2023-03-05T11:39:09.608Z,4.13
2023-03-05T11:41:45.441Z,4.83
2023-03-05T11:44:30.089Z,5.80
2023-03-05T11:47:02.544Z,5.30
2023-03-05T11:49:32.498Z,3.60
2023-03-05T11:52:24.107Z,3.15
2023-03-05T11:55:09.002Z,3.40
2023-03-05T11:57:45.474Z,3.08
2023-03-05T12:00:17.677Z,3.17
2023-03-05T12:02:45.958Z,2.95
2023-03-05T12:05:17.048Z,3.33
2023-03-05T12:07:49.392Z,5.03
2023-03-05T12:10:22.445Z,3.35
2023-03-05T12:13:07.266Z,2.78
2023-03-05T12:15:56.557Z,2.88
2023-03-05T12:18:57.378Z,6.25
2023-03-05T12:21:24.894Z,2.87
2023-03-05T12:23:55.436Z,6.93
2023-03-05T12:26:53.244Z,5.13
2023-03-05T12:29:41.461Z,3.60
2023-03-05T12:32:28.846Z,4.70
2023-03-05T12:35:06.540Z,3.73
2023-03-05T12:37:33.294Z,4.97
2023-03-05T12:40:08.770Z,5.38
2023-03-05T12:42:35.678Z,4.63
2023-03-05T12:45:20.387Z,4.90
2023-03-05T12:47:57.538Z,5.97
2023-03-05T12:50:29.995Z,5.05
2023-03-05T12:53:12.095Z,4.68
2023-03-05T12:55:47.870Z,4.43
2023-03-05T12:58:33.600Z,5.72
2023-03-05T13:01:14.113Z,7.47
2023-03-05T13:03:57.425Z,6.28
2023-03-05T13:06:35.423Z,5.00
2023-03-05T13:09:19.396Z,5.20
2023-03-05T13:11:49.798Z,5.40
2023-03-05T13:14:43.571Z,6.03
2023-03-05T13:17:44.968Z,5.75
2023-03-05T13:20:34.278Z,5.80
2023-03-05T13:23:26.423Z,5.38
2023-03-05T13:26:18.669Z,5.55
2023-03-05T13:29:02.710Z,5.50
2023-03-05T13:31:30.310Z,4.57
2023-03-05T13:34:08.193Z,5.18
2023-03-05T13:36:35.069Z,5.57
2023-03-05T13:39:04.030Z,5.45
2023-03-05T13:41:31.177Z,3.73
2023-03-05T13:44:01.008Z,3.65
2023-03-05T13:46:27.865Z,3.30
2023-03-05T13:48:55.329Z,2.80
2023-03-05T13:51:22.157Z,5.03
2023-03-05T13:53:50.071Z,4.13
2023-03-05T13:56:19.619Z,3.70
2023-03-05T13:58:48.224Z,6.22
2023-03-05T14:01:38.073Z,6.00
2023-03-05T14:04:24.806Z,4.65
2023-03-05T14:06:58.347Z,4.57
2023-03-05T14:09:47.317Z,4.43
2023-03-05T14:12:37.899Z,3.63
2023-03-05T14:15:29.124Z,3.13
2023-03-05T14:18:09.532Z,4.78
2023-03-05T14:20:36.450Z,2.73
2023-03-05T14:23:43.589Z,2.78
2023-03-05T14:26:29.393Z,4.50
2023-03-05T14:29:01.517Z,4.30
2023-03-05T14:31:30.850Z,6.13
2023-03-05T14:34:03.806Z,3.40
2023-03-05T14:36:31.325Z,4.07
2023-03-05T14:38:59.793Z,3.05
2023-03-05T14:41:42.151Z,3.83
2023-03-05T14:44:18.687Z,3.85
2023-03-05T14:46:49.815Z,4.50
2023-03-05T14:49:17.376Z,3.63
2023-03-05T14:51:46.270Z,5.25
2023-03-05T14:54:34.342Z,5.05
2023-03-05T14:57:01.210Z,4.25
2023-03-05T14:59:28.168Z,4.60
2023-03-05T15:01:55.099Z,4.10
2023-03-05T15:04:22.037Z,3.78
2023-03-05T15:06:51.216Z,4.13
2023-03-05T15:09:19.697Z,4.78
2023-03-05T15:11:47.222Z,3.37
2023-03-05T15:14:14.136Z,2.90
2023-03-05T15:16:44.076Z,3.38
2023-03-05T15:19:14.322Z,3.20
2023-03-05T15:21:41.375Z,6.35
2023-03-05T15:24:10.190Z,9.80
2023-03-05T15:26:37.790Z,3.63
2023-03-05T15:29:05.142Z,2.65
2023-03-05T15:31:38.412Z,3.38
2023-03-05T15:34:05.829Z,4.15
2023-03-05T15:36:33.696Z,5.40
2023-03-05T15:39:00.883Z,4.07
2023-03-05T15:41:27.822Z,4.07
2023-03-05T15:43:54.639Z,2.70
2023-03-05T15:46:21.657Z,4.50
2023-03-05T15:48:50.162Z,3.50
2023-03-05T15:51:17.777Z,4.22
2023-03-05T15:53:46.353Z,4.28
2023-03-05T15:56:18.097Z,5.90
2023-03-05T15:58:45.675Z,5.13
2023-03-05T16:01:13.009Z,5.97
2023-03-05T16:03:40.008Z,4.00
2023-03-05T16:06:08.943Z,4.45
2023-03-05T16:08:36.901Z,3.08
2023-03-05T16:11:04.409Z,4.38
2023-03-05T16:13:32.443Z,3.87
2023-03-05T16:15:59.521Z,5.82
2023-03-05T16:18:26.907Z,5.43
2023-03-05T16:20:54.723Z,7.03
2023-03-05T16:23:22.322Z,4.43
2023-03-05T16:25:49.297Z,7.10
2023-03-05T16:28:16.191Z,8.50
2023-03-05T16:30:43.139Z,4.55
2023-03-05T16:33:09.963Z,5.97
2023-03-05T16:35:36.872Z,5.88
2023-03-05T16:38:04.049Z,6.60
2023-03-05T16:40:56.665Z,5.72
2023-03-05T16:43:18.753Z,4.03
2023-03-05T16:45:45.571Z,5.93
2023-03-05T16:48:12.299Z,3.70
2023-03-05T16:50:39.118Z,4.17
2023-03-05T16:53:05.938Z,4.90
2023-03-05T16:55:32.740Z,3.33
2023-03-05T16:57:59.710Z,2.92
2023-03-05T17:00:26.555Z,3.38
2023-03-05T17:02:53.456Z,2.43
2023-03-05T17:05:20.226Z,2.90
2023-03-05T17:07:47.123Z,3.83
2023-03-05T17:10:14.184Z,3.88
2023-03-05T17:12:41.392Z,2.85
2023-03-05T17:15:08.893Z,5.20
2023-03-05T17:17:35.697Z,3.15
2023-03-05T17:20:02.667Z,3.17
2023-03-05T17:22:29.520Z,1.70
2023-03-05T17:24:56.456Z,5.18
2023-03-05T17:27:23.426Z,3.83
2023-03-05T17:29:50.237Z,4.25
2023-03-05T17:32:17.094Z,2.10
2023-03-05T17:34:44.513Z,3.03
2023-03-05T17:37:11.682Z,2.95
2023-03-05T17:39:39.409Z,2.77
2023-03-05T17:42:06.435Z,3.05
2023-03-05T17:44:33.258Z,3.70
2023-03-05T17:47:00.117Z,5.38
2023-03-05T17:49:26.891Z,3.97
2023-03-05T17:51:53.743Z,3.70
2023-03-05T17:54:20.486Z,4.85
2023-03-05T17:56:48.470Z,4.18
2023-03-05T17:59:16.491Z,5.32
2023-03-05T18:01:46.424Z,3.08
2023-03-05T18:04:15.260Z,2.40
2023-03-05T18:06:42.198Z,3.65
2023-03-05T18:09:09.704Z,5.80
2023-03-05T18:11:37.460Z,4.97
2023-03-05T18:14:04.367Z,3.25
2023-03-05T18:16:31.273Z,3.03
2023-03-05T18:18:58.218Z,3.28
2023-03-05T18:21:27.703Z,3.92
2023-03-05T18:23:54.585Z,2.35
2023-03-05T18:26:21.466Z,5.35
2023-03-05T18:28:48.888Z,3.80
2023-03-05T18:31:15.996Z,8.02
2023-03-05T18:33:43.359Z,4.35
2023-03-05T18:36:14.169Z,4.65
2023-03-05T18:38:42.085Z,4.82
2023-03-05T18:41:14.566Z,4.40
2023-03-05T18:43:41.930Z,4.90
2023-03-05T18:46:10.492Z,3.85
2023-03-05T18:48:37.830Z,5.07
2023-03-05T18:51:04.889Z,3.75
2023-03-05T18:53:31.639Z,4.73
2023-03-05T18:55:59.367Z,5.90
2023-03-05T18:58:29.869Z,4.53
2023-03-05T19:00:56.711Z,4.78
2023-03-05T19:03:24.411Z,4.70
2023-03-05T19:05:52.488Z,5.30
2023-03-05T19:08:20.818Z,4.90
2023-03-05T19:10:48.361Z,6.85
2023-03-05T19:13:48.994Z,6.95
2023-03-05T19:16:30.322Z,7.20
2023-03-05T19:19:13.802Z,5.37
2023-03-05T19:21:43.286Z,6.55
2023-03-05T19:24:12.744Z,5.38
2023-03-05T19:26:40.341Z,5.20
2023-03-05T19:29:09.227Z,8.18
2023-03-05T19:31:36.788Z,3.90
2023-03-05T19:34:03.800Z,7.55
2023-03-05T19:36:31.687Z,6.13
2023-03-05T19:39:00.260Z,5.18
2023-03-05T19:41:27.755Z,5.32
2023-03-05T19:43:54.578Z,4.10
2023-03-05T19:46:21.665Z,5.78
2023-03-05T19:48:48.695Z,5.70
2023-03-05T19:51:19.256Z,6.68
2023-03-05T19:53:47.037Z,5.80
2023-03-05T19:56:16.330Z,9.53
2023-03-05T19:58:48.753Z,6.10
2023-03-05T20:01:21.639Z,5.90
2023-03-05T20:03:56.525Z,5.95
2023-03-05T20:06:25.147Z,6.60
2023-03-05T20:08:52.130Z,8.53
2023-03-05T20:11:20.636Z,6.38
2023-03-05T20:13:48.095Z,4.72
2023-03-05T20:16:20.734Z,7.47
2023-03-05T20:18:52.593Z,5.72
2023-03-05T20:21:40.668Z,6.90
2023-03-05T20:24:11.270Z,6.05
2023-03-05T20:26:39.814Z,4.78
2023-03-05T20:29:07.528Z,5.53
2023-03-05T20:31:36.885Z,7.72
2023-03-05T20:34:16.509Z,7.10
2023-03-05T20:36:43.698Z,5.07
2023-03-05T20:39:10.996Z,7.13
2023-03-05T20:41:39.857Z,4.90
2023-03-05T20:44:08.354Z,5.20
2023-03-05T20:46:39.376Z,7.10
2023-03-05T20:49:06.268Z,5.35
2023-03-05T20:51:36.297Z,7.95
2023-03-05T20:54:10.083Z,5.82
2023-03-05T20:56:38.297Z,4.80
2023-03-05T20:59:08.643Z,7.57
2023-03-05T21:01:38.938Z,7.47
2023-03-05T21:04:06.854Z,6.03
2023-03-05T21:06:33.821Z,6.50
2023-03-05T21:09:02.192Z,6.75
2023-03-05T21:11:29.334Z,6.47
2023-03-05T21:13:57.375Z,7.82
2023-03-05T21:16:28.596Z,8.35
2023-03-05T21:18:58.729Z,6.50
2023-03-05T21:21:27.351Z,6.75
2023-03-05T21:23:54.159Z,7.17
2023-03-05T21:26:28.623Z,6.68
2023-03-05T21:28:56.337Z,7.75
2023-03-05T21:31:23.839Z,6.72
2023-03-05T21:33:52.402Z,7.47
2023-03-05T21:36:19.636Z,6.60
2023-03-05T21:38:49.024Z,6.32
2023-03-05T21:41:20.064Z,6.45
2023-03-05T21:43:47.225Z,8.98
2023-03-05T21:46:14.447Z,8.45
2023-03-05T21:48:43.342Z,7.67
2023-03-05T21:51:13.694Z,7.40
2023-03-05T21:53:40.964Z,7.88
2023-03-05T21:56:18.432Z,5.75
2023-03-05T21:58:46.266Z,7.95
2023-03-05T22:01:14.803Z,5.90
2023-03-05T22:03:43.240Z,6.13
2023-03-05T22:06:11.832Z,5.93
2023-03-05T22:08:40.214Z,6.20
2023-03-05T22:11:14.534Z,8.18
2023-03-05T22:13:42.145Z,7.33
2023-03-05T22:16:09.917Z,7.80
2023-03-05T22:18:37.163Z,7.70
2023-03-05T22:21:05.393Z,6.13
2023-03-05T22:23:36.631Z,7.30
2023-03-05T22:26:06.528Z,7.23
2023-03-05T22:28:35.483Z,7.93
2023-03-05T22:31:02.482Z,8.32
2023-03-05T22:33:29.852Z,8.07
2023-03-05T22:35:56.952Z,8.32
2023-03-05T22:38:25.307Z,8.00
2023-03-05T22:40:52.504Z,8.35
2023-03-05T22:43:20.179Z,10.52
2023-03-05T22:45:47.268Z,9.35
2023-03-05T22:48:14.474Z,10.30
2023-03-05T22:50:43.922Z,9.43
2023-03-05T22:53:11.214Z,10.20
2023-03-05T22:55:40.085Z,11.57
2023-03-05T22:58:07.208Z,11.43
2023-03-05T23:00:34.134Z,11.07
2023-03-05T23:03:01.372Z,15.80
2023-03-05T23:05:28.507Z,11.57
2023-03-05T23:07:55.447Z,11.02
2023-03-05T23:10:26.985Z,13.27
2023-03-05T23:12:55.385Z,11.05
2023-03-05T23:15:34.192Z,11.57
2023-03-05T23:18:01.589Z,11.52
2023-03-05T23:20:31.530Z,11.93
2023-03-05T23:22:58.859Z,10.35
2023-03-05T23:25:28.873Z,10.55
2023-03-05T23:27:57.942Z,10.20
2023-03-05T23:30:29.875Z,11.18
2023-03-05T23:33:02.813Z,11.25
2023-03-05T23:35:32.702Z,10.70
2023-03-05T23:38:01.048Z,12.88
2023-03-05T23:40:33.976Z,12.70
2023-03-05T23:43:01.189Z,11.00
2023-03-05T23:45:28.815Z,13.00
2023-03-05T23:47:56.093Z,10.60
2023-03-05T23:50:27.917Z,12.40
2023-03-05T23:52:55.417Z,10.50
2023-03-05T23:55:27.918Z,12.15
2023-03-05T23:57:55.421Z,15.75
